• Join FlightAware (Why Join?)
  • Login
  • US Flag 
02:26PM EDT


 

Airport Tracker/Info


-or-


 

Live Flight TrackerFlight Track Log ✈ EJA396 ✈ 11-May-2014 ✈ KPWK - KSTP

Flight Track Log - Related Links

Times and Time Zones

All times are in EDT time to prevent confusion due to time zone crossing. See the EJA396 flight status page for this flight to view local times or setup timezone preferences in your user account.

Time Position Orientation Groundspeed Altitude Reporting Facility
EDT Latitude Longitude Course Direction KTS MPH feet Rate Location/Type
12:39PM 42.1000 -87.8833 26° Northeast 159 183 1,600  Level Chicago TRACON
12:40PM 42.1500 -87.8500 26° Northeast 165 190 2,000 960 Climbing Chicago TRACON
12:42PM 42.2117 -87.9117 323° Northwest 209 241 4,000 1,260 Climbing Chicago Center
12:43PM 42.2672 -87.9722 321° Northwest 256 295 5,200 2,220 Climbing Chicago Center
12:44PM 42.3286 -88.0342 323° Northwest 272 313 8,600 3,000 Climbing Chicago Center
12:45PM 42.3853 -88.0853 326° Northwest 272 313 11,400 3,060 Climbing Chicago Center
12:46PM 42.4961 -88.0794 North 330 380 15,000 3,180 Climbing Chicago Center
12:47PM 42.5975 -88.1106 347° North 371 427 18,000 3,000 Climbing Chicago Center
12:48PM 42.7011 -88.1456 346° North 381 438 21,200 2,820 Climbing Chicago Center
12:49PM 42.8047 -88.1800 346° North 383 441 23,900 1,320 Climbing Chicago Center
12:50PM 42.8867 -88.2850 317° Northwest 401 461 24,000  Climbing Chicago Center
12:51PM 42.9628 -88.3897 315° West 389 448 24,000 780 Level Chicago Center
12:52PM 43.0375 -88.4925 315° West 382 440 25,700 960 Climbing Chicago Center
12:53PM 43.1164 -88.6014 315° West 397 457 26,000 120 Climbing Chicago Center
12:54PM 43.2111 -88.7314 315° West 398 458 26,000  Level Chicago Center
12:55PM 43.2867 -88.8383 314° West 392 451 26,000  Level Chicago Center
12:56PM 43.3617 -88.9431 315° West 386 444 26,000  Level Chicago Center
12:57PM 43.4356 -89.0464 315° West 381 438 26,000  Level Chicago Center
12:58PM 43.5086 -89.1492 314° West 377 434 26,000  Level Chicago Center
12:59PM 43.5811 -89.2519 314° West 376 433 26,000  Level Chicago Center
01:00PM 43.6539 -89.3542 315° West 376 433 26,000  Level Chicago Center
01:01PM 43.7136 -89.4367 315° West 377 434 26,000  Level Minneapolis Center
01:02PM 43.7844 -89.5403 313° West 376 433 26,000  Level Minneapolis Center
01:03PM 43.8567 -89.6436 314° West 375 432 26,000  Level Minneapolis Center
01:04PM 43.9278 -89.7494 313° West 375 432 26,000  Level Minneapolis Center
01:05PM 43.9750 -89.8728 298° West 369 425 26,000  Level Minneapolis Center
01:06PM 44.0219 -89.9958 298° West 366 421 26,000  Level Minneapolis Center
01:07PM 44.0875 -90.1686 298° West 363 418 26,000  Level Chicago Center
01:08PM 44.1250 -90.2658 298° West 362 417 26,000  Level Minneapolis Center
01:09PM 44.1725 -90.3878 299° West 361 415 26,000  Level Minneapolis Center
01:10PM 44.2192 -90.5111 298° West 360 414 26,000 -840 Level Minneapolis Center
01:11PM 44.2642 -90.6286 298° West 359 413 24,400 -1,680 Descending Minneapolis Center
01:12PM 44.3167 -90.7697 298° West 389 448 22,600 -1,620 Descending Minneapolis Center
01:13PM 44.3656 -90.9014 297° West 387 445 21,200 -1,500 Descending Minneapolis Center
01:14PM 44.4186 -91.0417 298° West 381 438 19,600 -1,440 Descending Minneapolis Center
01:15PM 44.4658 -91.1697 297° West 377 434 18,300 -1,320 Descending Minneapolis Center
01:16PM 44.5119 -91.2964 297° West 373 429 17,000 -1,320 Descending Minneapolis Center
01:17PM 44.5578 -91.4208 297° West 367 422 15,600 -1,320 Descending Minneapolis Center
01:18PM 44.6019 -91.5411 297° West 356 410 14,300 -1,320 Descending Minneapolis Center
01:19PM 44.6467 -91.6614 298° West 351 404 13,000 -1,380 Descending Minneapolis Center
01:20PM 44.6975 -91.8044 297° West 349 402 11,500 -1,320 Descending Minneapolis Center
01:21PM 44.7375 -91.9108 298° West 305 351 10,400 -1,080 Descending Minneapolis Center
01:22PM 44.7694 -92.0056 295° West 271 312 9,400 -1,080 Descending Minneapolis Center
01:23PM 44.8050 -92.1019 297° West 277 319 8,300 -1,080 Descending Minneapolis Center
01:24PM 44.8392 -92.1969 297° West 276 318 7,300 -1,020 Descending Minneapolis Center
01:25PM 44.8719 -92.2892 297° West 270 311 6,300 -600 Descending Minneapolis Center
01:26PM 44.8961 -92.3844 290° West 263 303 6,100 -840 Descending Minneapolis Center
01:27PM 44.9136 -92.4828 284° West 261 300 4,700 -1,380 Descending Minneapolis Center
01:28PM 44.9325 -92.5828 285° West 224 258 3,400 -660 Descending Minneapolis Center
01:29PM 44.9469 -92.6639 284° West 215 247 3,400  Level Minneapolis Center
01:30PM 44.9631 -92.7519 285° West 228 262 3,400 -60 Level Minneapolis Center
01:31PM 44.9789 -92.8392 284° West 229 264 3,300 -540 Descending Minneapolis Center
01:33PM 44.9900 -92.9281 280° West 231 266 2,300 -600 Descending Minneapolis Center
01:34PM 44.9872 -93.0117 267° West 217 250 2,100 -300 Descending Minneapolis Center
01:35PM 44.9758 -93.0692 254° West 151 174 1,700 -540 Descending Minneapolis Center
01:36PM 44.9467 -93.0714 183° South 116 133 1,000 -720 Descending Minneapolis Center
01:38PM 44.9333 -93.0500 133° Southeast  Level FlightAware Approximate
01:45PM 44.9346 -93.0603 133° Southeast  Level Estimated